sensor_id;sensor_type;location;lat;lon;timestamp;pressure;altitude;pressure_sealevel;temperature;humidity
8320;BME280;4197;42.130;24.746;2023-04-20T00:00:10;99089.47;;;9.99;100.00
8320;BME280;4197;42.130;24.746;2023-04-20T00:02:41;99096.88;;;10.02;100.00
8320;BME280;4197;42.130;24.746;2023-04-20T00:05:10;99091.66;;;10.13;100.00
8320;BME280;4197;42.130;24.746;2023-04-20T00:07:39;99090.50;;;10.14;100.00
8320;BME280;4197;42.130;24.746;2023-04-20T00:10:11;99084.75;;;10.15;100.00
8320;BME280;4197;42.130;24.746;2023-04-20T00:12:40;99092.88;;;10.15;100.00
8320;BME280;4197;42.130;24.746;2023-04-20T00:15:09;99085.31;;;10.05;100.00
8320;BME280;4197;42.130;24.746;2023-04-20T00:17:37;99084.19;;;10.06;100.00
8320;BME280;4197;42.130;24.746;2023-04-20T00:20:08;99083.97;;;10.15;100.00
8320;BME280;4197;42.130;24.746;2023-04-20T00:22:36;99085.38;;;10.09;100.00
8320;BME280;4197;42.130;24.746;2023-04-20T00:25:05;99081.91;;;10.08;100.00
8320;BME280;4197;42.130;24.746;2023-04-20T00:27:34;99085.75;;;10.07;100.00
8320;BME280;4197;42.130;24.746;2023-04-20T00:30:04;99082.91;;;10.00;100.00
8320;BME280;4197;42.130;24.746;2023-04-20T00:32:32;99082.06;;;9.96;100.00
8320;BME280;4197;42.130;24.746;2023-04-20T00:35:01;99079.59;;;9.87;100.00
8320;BME280;4197;42.130;24.746;2023-04-20T00:37:31;99083.00;;;9.84;100.00
8320;BME280;4197;42.130;24.746;2023-04-20T00:39:59;99076.72;;;9.80;100.00
8320;BME280;4197;42.130;24.746;2023-04-20T00:42:27;99083.34;;;9.82;100.00
8320;BME280;4197;42.130;24.746;2023-04-20T00:44:55;99077.38;;;9.73;100.00
8320;BME280;4197;42.130;24.746;2023-04-20T00:47:23;99079.94;;;9.66;100.00
8320;BME280;4197;42.130;24.746;2023-04-20T00:49:52;99085.78;;;9.68;100.00
8320;BME280;4197;42.130;24.746;2023-04-20T00:52:21;99083.44;;;9.67;100.00
8320;BME280;4197;42.130;24.746;2023-04-20T00:54:51;99075.53;;;9.58;100.00
8320;BME280;4197;42.130;24.746;2023-04-20T00:57:19;99083.19;;;9.56;100.00
8320;BME280;4197;42.130;24.746;2023-04-20T00:59:49;99079.38;;;9.57;100.00
8320;BME280;4197;42.130;24.746;2023-04-20T01:02:18;99082.03;;;9.53;100.00
8320;BME280;4197;42.130;24.746;2023-04-20T01:04:46;99080.88;;;9.54;100.00
8320;BME280;4197;42.130;24.746;2023-04-20T01:07:14;99083.63;;;9.58;100.00
8320;BME280;4197;42.130;24.746;2023-04-20T01:09:43;99076.59;;;9.73;100.00
8320;BME280;4197;42.130;24.746;2023-04-20T01:12:13;99078.38;;;9.85;100.00
8320;BME280;4197;42.130;24.746;2023-04-20T01:14:41;99081.09;;;9.85;100.00
8320;BME280;4197;42.130;24.746;2023-04-20T01:17:09;99080.31;;;9.84;100.00
8320;BME280;4197;42.130;24.746;2023-04-20T01:19:37;99077.66;;;9.88;100.00
8320;BME280;4197;42.130;24.746;2023-04-20T01:22:05;99084.00;;;9.95;100.00
8320;BME280;4197;42.130;24.746;2023-04-20T01:24:35;99077.91;;;10.02;100.00
8320;BME280;4197;42.130;24.746;2023-04-20T01:27:03;99074.16;;;10.07;100.00
8320;BME280;4197;42.130;24.746;2023-04-20T01:29:31;99080.06;;;10.12;100.00
8320;BME280;4197;42.130;24.746;2023-04-20T01:32:00;99079.34;;;10.15;100.00
8320;BME280;4197;42.130;24.746;2023-04-20T01:34:28;99080.59;;;10.21;100.00
8320;BME280;4197;42.130;24.746;2023-04-20T01:36:56;99075.41;;;10.32;100.00
8320;BME280;4197;42.130;24.746;2023-04-20T01:39:25;99072.38;;;10.37;100.00
8320;BME280;4197;42.130;24.746;2023-04-20T01:41:54;99075.16;;;10.41;100.00
8320;BME280;4197;42.130;24.746;2023-04-20T01:44:22;99075.22;;;10.44;100.00
8320;BME280;4197;42.130;24.746;2023-04-20T01:46:51;99069.63;;;10.57;100.00
8320;BME280;4197;42.130;24.746;2023-04-20T01:49:19;99076.63;;;10.61;100.00
8320;BME280;4197;42.130;24.746;2023-04-20T01:51:47;99074.75;;;10.62;100.00
8320;BME280;4197;42.130;24.746;2023-04-20T01:54:15;99065.75;;;10.58;100.00
8320;BME280;4197;42.130;24.746;2023-04-20T01:56:43;99066.53;;;10.58;100.00
8320;BME280;4197;42.130;24.746;2023-04-20T01:59:13;99069.63;;;10.57;100.00
8320;BME280;4197;42.130;24.746;2023-04-20T02:01:41;99072.69;;;10.55;100.00
8320;BME280;4197;42.130;24.746;2023-04-20T02:04:09;99060.28;;;10.54;100.00
8320;BME280;4197;42.130;24.746;2023-04-20T02:06:37;99063.28;;;10.49;100.00
8320;BME280;4197;42.130;24.746;2023-04-20T02:09:06;99061.78;;;10.52;100.00
8320;BME280;4197;42.130;24.746;2023-04-20T02:11:35;99062.81;;;10.43;100.00
8320;BME280;4197;42.130;24.746;2023-04-20T02:14:03;99063.25;;;10.45;100.00
8320;BME280;4197;42.130;24.746;2023-04-20T02:16:35;99069.44;;;10.46;100.00
8320;BME280;4197;42.130;24.746;2023-04-20T02:19:03;99067.75;;;10.38;100.00
8320;BME280;4197;42.130;24.746;2023-04-20T02:21:32;99076.31;;;10.40;100.00
8320;BME280;4197;42.130;24.746;2023-04-20T02:24:00;99078.41;;;10.50;100.00
8320;BME280;4197;42.130;24.746;2023-04-20T02:26:28;99080.16;;;10.39;100.00
8320;BME280;4197;42.130;24.746;2023-04-20T02:28:56;99078.59;;;10.38;100.00
8320;BME280;4197;42.130;24.746;2023-04-20T02:31:24;99079.06;;;10.43;100.00
8320;BME280;4197;42.130;24.746;2023-04-20T02:33:54;99077.91;;;10.44;100.00
8320;BME280;4197;42.130;24.746;2023-04-20T02:36:22;99083.41;;;10.48;100.00
8320;BME280;4197;42.130;24.746;2023-04-20T02:38:50;99078.81;;;10.52;100.00
8320;BME280;4197;42.130;24.746;2023-04-20T02:41:18;99080.34;;;10.49;100.00
8320;BME280;4197;42.130;24.746;2023-04-20T02:43:49;99076.31;;;10.40;100.00
8320;BME280;4197;42.130;24.746;2023-04-20T02:46:17;99079.06;;;10.43;100.00
8320;BME280;4197;42.130;24.746;2023-04-20T02:48:46;99074.38;;;10.40;100.00
8320;BME280;4197;42.130;24.746;2023-04-20T02:51:15;99074.81;;;10.42;100.00
8320;BME280;4197;42.130;24.746;2023-04-20T02:53:43;99086.03;;;10.44;100.00
8320;BME280;4197;42.130;24.746;2023-04-20T02:56:12;99079.41;;;10.42;100.00
8320;BME280;4197;42.130;24.746;2023-04-20T02:58:40;99081.66;;;10.36;100.00
8320;BME280;4197;42.130;24.746;2023-04-20T03:01:08;99080.81;;;10.32;100.00
8320;BME280;4197;42.130;24.746;2023-04-20T03:03:38;99073.03;;;10.31;100.00
8320;BME280;4197;42.130;24.746;2023-04-20T03:06:07;99072.53;;;10.25;100.00
8320;BME280;4197;42.130;24.746;2023-04-20T03:08:37;99069.94;;;10.29;100.00
8320;BME280;4197;42.130;24.746;2023-04-20T03:11:05;99079.59;;;10.30;100.00
8320;BME280;4197;42.130;24.746;2023-04-20T03:13:33;99076.56;;;10.31;100.00
8320;BME280;4197;42.130;24.746;2023-04-20T03:16:02;99081.25;;;10.34;100.00
8320;BME280;4197;42.130;24.746;2023-04-20T03:18:30;99074.44;;;10.24;100.00
8320;BME280;4197;42.130;24.746;2023-04-20T03:20:59;99084.31;;;10.13;100.00
8320;BME280;4197;42.130;24.746;2023-04-20T03:23:27;99078.34;;;10.04;100.00
8320;BME280;4197;42.130;24.746;2023-04-20T03:25:56;99081.06;;;10.04;100.00
8320;BME280;4197;42.130;24.746;2023-04-20T03:28:25;99077.41;;;10.16;100.00
8320;BME280;4197;42.130;24.746;2023-04-20T03:30:55;99079.34;;;10.15;100.00
8320;BME280;4197;42.130;24.746;2023-04-20T03:33:23;99068.34;;;10.08;100.00
8320;BME280;4197;42.130;24.746;2023-04-20T03:35:53;99073.38;;;10.06;100.00
8320;BME280;4197;42.130;24.746;2023-04-20T03:38:22;99069.03;;;10.01;100.00
8320;BME280;4197;42.130;24.746;2023-04-20T03:40:50;99070.22;;;10.04;100.00
8320;BME280;4197;42.130;24.746;2023-04-20T03:43:19;99069.31;;;9.96;100.00
8320;BME280;4197;42.130;24.746;2023-04-20T03:45:47;99069.50;;;10.07;100.00
8320;BME280;4197;42.130;24.746;2023-04-20T03:48:15;99069.66;;;10.14;100.00
8320;BME280;4197;42.130;24.746;2023-04-20T03:50:43;99078.19;;;10.16;100.00
8320;BME280;4197;42.130;24.746;2023-04-20T03:53:12;99081.38;;;10.22;100.00
8320;BME280;4197;42.130;24.746;2023-04-20T03:55:40;99077.47;;;10.19;100.00
8320;BME280;4197;42.130;24.746;2023-04-20T03:58:08;99074.81;;;10.23;100.00
8320;BME280;4197;42.130;24.746;2023-04-20T04:00:37;99086.72;;;10.38;100.00
8320;BME280;4197;42.130;24.746;2023-04-20T04:03:05;99086.19;;;10.52;100.00
8320;BME280;4197;42.130;24.746;2023-04-20T04:05:34;99079.59;;;10.53;100.00
8320;BME280;4197;42.130;24.746;2023-04-20T04:08:02;99079.25;;;10.54;100.00
8320;BME280;4197;42.130;24.746;2023-04-20T04:10:31;99085.97;;;10.64;100.00
8320;BME280;4197;42.130;24.746;2023-04-20T04:12:59;99089.97;;;10.70;100.00
8320;BME280;4197;42.130;24.746;2023-04-20T04:15:27;99093.25;;;10.83;100.00
8320;BME280;4197;42.130;24.746;2023-04-20T04:17:57;99092.44;;;10.79;100.00
8320;BME280;4197;42.130;24.746;2023-04-20T04:20:25;99098.84;;;10.93;100.00
8320;BME280;4197;42.130;24.746;2023-04-20T04:22:53;99100.78;;;10.93;100.00
8320;BME280;4197;42.130;24.746;2023-04-20T04:25:23;99105.25;;;11.08;100.00
8320;BME280;4197;42.130;24.746;2023-04-20T04:27:51;99103.88;;;11.18;100.00
8320;BME280;4197;42.130;24.746;2023-04-20T04:30:20;99099.22;;;11.19;100.00
8320;BME280;4197;42.130;24.746;2023-04-20T04:32:49;99099.41;;;11.33;100.00
8320;BME280;4197;42.130;24.746;2023-04-20T04:35:19;99101.91;;;11.45;100.00
8320;BME280;4197;42.130;24.746;2023-04-20T04:37:47;99103.63;;;11.57;100.00
8320;BME280;4197;42.130;24.746;2023-04-20T04:40:15;99099.81;;;11.61;100.00
8320;BME280;4197;42.130;24.746;2023-04-20T04:42:44;99108.03;;;11.69;100.00
8320;BME280;4197;42.130;24.746;2023-04-20T04:45:14;99107.38;;;11.79;100.00
8320;BME280;4197;42.130;24.746;2023-04-20T04:47:44;99102.28;;;11.74;100.00
8320;BME280;4197;42.130;24.746;2023-04-20T04:50:12;99104.06;;;11.63;100.00
8320;BME280;4197;42.130;24.746;2023-04-20T04:52:42;99107.50;;;11.56;100.00
8320;BME280;4197;42.130;24.746;2023-04-20T04:55:10;99102.72;;;11.49;100.00
8320;BME280;4197;42.130;24.746;2023-04-20T04:57:41;99100.34;;;11.44;100.00
8320;BME280;4197;42.130;24.746;2023-04-20T05:00:10;99102.25;;;11.40;100.00
8320;BME280;4197;42.130;24.746;2023-04-20T05:02:39;99104.56;;;11.42;100.00
8320;BME280;4197;42.130;24.746;2023-04-20T05:05:07;99094.16;;;11.47;100.00
8320;BME280;4197;42.130;24.746;2023-04-20T05:07:37;99101.97;;;11.49;100.00
8320;BME280;4197;42.130;24.746;2023-04-20T05:10:07;99110.56;;;11.54;100.00
8320;BME280;4197;42.130;24.746;2023-04-20T05:12:36;99105.25;;;11.61;100.00
8320;BME280;4197;42.130;24.746;2023-04-20T05:15:06;99106.88;;;11.70;100.00
8320;BME280;4197;42.130;24.746;2023-04-20T05:17:34;99107.38;;;11.79;100.00
8320;BME280;4197;42.130;24.746;2023-04-20T05:20:03;99111.31;;;11.85;100.00
8320;BME280;4197;42.130;24.746;2023-04-20T05:22:32;99117.25;;;11.91;100.00
8320;BME280;4197;42.130;24.746;2023-04-20T05:25:00;99110.41;;;12.04;100.00
8320;BME280;4197;42.130;24.746;2023-04-20T05:27:31;99114.34;;;12.10;100.00
8320;BME280;4197;42.130;24.746;2023-04-20T05:30:00;99120.31;;;12.23;100.00
8320;BME280;4197;42.130;24.746;2023-04-20T05:32:46;99117.75;;;12.37;100.00
8320;BME280;4197;42.130;24.746;2023-04-20T05:35:18;99121.31;;;12.45;100.00
8320;BME280;4197;42.130;24.746;2023-04-20T05:37:47;99121.34;;;12.48;100.00
8320;BME280;4197;42.130;24.746;2023-04-20T05:40:15;99117.53;;;12.53;100.00
8320;BME280;4197;42.130;24.746;2023-04-20T05:42:44;99119.91;;;12.62;100.00
8320;BME280;4197;42.130;24.746;2023-04-20T05:45:13;99123.06;;;12.67;100.00
8320;BME280;4197;42.130;24.746;2023-04-20T05:47:41;99123.53;;;12.77;100.00
8320;BME280;4197;42.130;24.746;2023-04-20T05:50:09;99120.13;;;12.87;100.00
8320;BME280;4197;42.130;24.746;2023-04-20T05:52:37;99120.56;;;12.92;100.00
8320;BME280;4197;42.130;24.746;2023-04-20T05:55:06;99126.41;;;12.94;100.00
8320;BME280;4197;42.130;24.746;2023-04-20T05:57:35;99114.78;;;13.01;100.00
8320;BME280;4197;42.130;24.746;2023-04-20T06:00:11;99124.59;;;13.13;100.00
8320;BME280;4197;42.130;24.746;2023-04-20T06:02:40;99113.41;;;13.25;100.00
8320;BME280;4197;42.130;24.746;2023-04-20T06:05:09;99119.31;;;13.38;100.00
8320;BME280;4197;42.130;24.746;2023-04-20T06:07:38;99129.13;;;13.50;100.00
8320;BME280;4197;42.130;24.746;2023-04-20T06:10:07;99124.09;;;13.55;100.00
8320;BME280;4197;42.130;24.746;2023-04-20T06:12:36;99123.34;;;13.58;100.00
8320;BME280;4197;42.130;24.746;2023-04-20T06:15:05;99125.66;;;13.56;100.00
8320;BME280;4197;42.130;24.746;2023-04-20T06:17:53;99121.03;;;13.64;100.00
8320;BME280;4197;42.130;24.746;2023-04-20T06:20:21;99127.31;;;13.72;100.00
8320;BME280;4197;42.130;24.746;2023-04-20T06:22:50;99124.22;;;13.80;100.00
8320;BME280;4197;42.130;24.746;2023-04-20T06:25:18;99130.03;;;13.75;100.00
8320;BME280;4197;42.130;24.746;2023-04-20T06:27:46;99134.34;;;13.83;100.00
8320;BME280;4197;42.130;24.746;2023-04-20T06:30:18;99132.81;;;13.93;100.00
8320;BME280;4197;42.130;24.746;2023-04-20T06:32:46;99128.94;;;13.98;100.00
8320;BME280;4197;42.130;24.746;2023-04-20T06:35:16;99132.88;;;14.07;100.00
8320;BME280;4197;42.130;24.746;2023-04-20T06:37:44;99128.19;;;13.97;100.00
8320;BME280;4197;42.130;24.746;2023-04-20T06:40:12;99121.94;;;13.97;100.00
8320;BME280;4197;42.130;24.746;2023-04-20T06:42:42;99128.19;;;14.04;100.00
8320;BME280;4197;42.130;24.746;2023-04-20T06:45:11;99134.03;;;14.10;100.00
8320;BME280;4197;42.130;24.746;2023-04-20T06:47:39;99119.59;;;13.99;100.00
8320;BME280;4197;42.130;24.746;2023-04-20T06:50:13;99123.50;;;14.01;100.00
8320;BME280;4197;42.130;24.746;2023-04-20T06:52:44;99123.88;;;13.93;100.00
8320;BME280;4197;42.130;24.746;2023-04-20T06:55:13;99120.78;;;13.98;100.00
8320;BME280;4197;42.130;24.746;2023-04-20T06:57:42;99120.03;;;14.12;100.00
8320;BME280;4197;42.130;24.746;2023-04-20T07:00:11;99126.28;;;14.19;100.00
8320;BME280;4197;42.130;24.746;2023-04-20T07:02:43;99117.34;;;14.29;100.00
8320;BME280;4197;42.130;24.746;2023-04-20T07:05:12;99120.88;;;14.41;100.00
8320;BME280;4197;42.130;24.746;2023-04-20T07:07:42;99124.78;;;14.47;100.00
8320;BME280;4197;42.130;24.746;2023-04-20T07:10:13;99126.38;;;14.59;97.10
8320;BME280;4197;42.130;24.746;2023-04-20T07:12:42;99127.56;;;14.61;92.29
8320;BME280;4197;42.130;24.746;2023-04-20T07:15:10;99123.66;;;14.55;92.71
8320;BME280;4197;42.130;24.746;2023-04-20T07:17:39;99129.13;;;14.62;94.22
8320;BME280;4197;42.130;24.746;2023-04-20T07:20:08;99130.66;;;14.60;92.58
8320;BME280;4197;42.130;24.746;2023-04-20T07:22:37;99122.09;;;14.61;91.09
8320;BME280;4197;42.130;24.746;2023-04-20T07:25:07;99123.66;;;14.62;91.66
8320;BME280;4197;42.130;24.746;2023-04-20T07:27:39;99128.75;;;14.75;90.87
8320;BME280;4197;42.130;24.746;2023-04-20T07:30:09;99133.41;;;14.85;91.79
8320;BME280;4197;42.130;24.746;2023-04-20T07:32:38;99122.13;;;14.97;91.04
8320;BME280;4197;42.130;24.746;2023-04-20T07:35:08;99123.66;;;15.12;90.75
8320;BME280;4197;42.130;24.746;2023-04-20T07:37:36;99125.59;;;15.23;87.59
8320;BME280;4197;42.130;24.746;2023-04-20T07:40:07;99124.03;;;15.14;87.90
8320;BME280;4197;42.130;24.746;2023-04-20T07:42:36;99122.50;;;15.13;85.28
8320;BME280;4197;42.130;24.746;2023-04-20T07:45:06;99130.69;;;15.13;84.39
8320;BME280;4197;42.130;24.746;2023-04-20T07:47:34;99133.78;;;15.01;85.28
8320;BME280;4197;42.130;24.746;2023-04-20T07:50:04;99131.06;;;15.08;87.06
8320;BME280;4197;42.130;24.746;2023-04-20T07:52:32;99128.69;;;15.21;87.17
8320;BME280;4197;42.130;24.746;2023-04-20T07:55:01;99128.31;;;15.30;85.32
8320;BME280;4197;42.130;24.746;2023-04-20T07:57:29;99139.56;;;15.46;85.31
8320;BME280;4197;42.130;24.746;2023-04-20T07:59:59;99128.25;;;15.55;83.84
8320;BME280;4197;42.130;24.746;2023-04-20T08:02:27;99127.44;;;15.61;85.56
8320;BME280;4197;42.130;24.746;2023-04-20T08:04:55;99120.41;;;15.75;85.24
8320;BME280;4197;42.130;24.746;2023-04-20T08:07:24;99125.03;;;15.85;84.65
8320;BME280;4197;42.130;24.746;2023-04-20T08:09:52;99119.19;;;15.79;84.36
8320;BME280;4197;42.130;24.746;2023-04-20T08:12:22;99120.44;;;15.71;85.16
8320;BME280;4197;42.130;24.746;2023-04-20T08:14:51;99118.91;;;15.52;84.82
8320;BME280;4197;42.130;24.746;2023-04-20T08:17:22;99114.97;;;15.46;84.68
8320;BME280;4197;42.130;24.746;2023-04-20T08:19:50;99116.94;;;15.46;84.47
8320;BME280;4197;42.130;24.746;2023-04-20T08:22:18;99115.00;;;15.43;85.56
8320;BME280;4197;42.130;24.746;2023-04-20T08:24:46;99114.59;;;15.51;85.63
8320;BME280;4197;42.130;24.746;2023-04-20T08:27:15;99109.50;;;15.57;84.71
8320;BME280;4197;42.130;24.746;2023-04-20T08:29:44;99122.00;;;15.58;85.98
8320;BME280;4197;42.130;24.746;2023-04-20T08:32:13;99117.69;;;15.60;86.22
8320;BME280;4197;42.130;24.746;2023-04-20T08:34:42;99115.72;;;15.65;84.06
8320;BME280;4197;42.130;24.746;2023-04-20T08:37:10;99112.22;;;15.64;85.31
8320;BME280;4197;42.130;24.746;2023-04-20T08:39:39;99107.91;;;15.74;85.40
8320;BME280;4197;42.130;24.746;2023-04-20T08:42:07;99105.91;;;15.85;84.52
8320;BME280;4197;42.130;24.746;2023-04-20T08:44:35;99098.44;;;15.93;86.10
8320;BME280;4197;42.130;24.746;2023-04-20T08:47:03;99109.72;;;16.05;82.78
8320;BME280;4197;42.130;24.746;2023-04-20T08:49:33;99109.28;;;16.14;82.04
8320;BME280;4197;42.130;24.746;2023-04-20T08:52:04;99104.56;;;16.22;78.89
8320;BME280;4197;42.130;24.746;2023-04-20T08:54:34;99098.28;;;16.25;80.06
8320;BME280;4197;42.130;24.746;2023-04-20T08:57:15;99108.84;;;16.23;78.00
8320;BME280;4197;42.130;24.746;2023-04-20T08:59:43;99099.09;;;16.22;71.43
8320;BME280;4197;42.130;24.746;2023-04-20T09:02:12;99097.00;;;16.40;70.01
8320;BME280;4197;42.130;24.746;2023-04-20T09:04:41;99086.81;;;16.44;67.57
8320;BME280;4197;42.130;24.746;2023-04-20T09:07:18;99083.31;;;16.44;65.69
8320;BME280;4197;42.130;24.746;2023-04-20T09:09:53;99092.94;;;16.63;66.74
8320;BME280;4197;42.130;24.746;2023-04-20T09:12:22;99100.22;;;16.84;68.01
8320;BME280;4197;42.130;24.746;2023-04-20T09:14:52;99096.53;;;17.05;64.64
8320;BME280;4197;42.130;24.746;2023-04-20T09:17:32;99100.41;;;17.07;64.54
8320;BME280;4197;42.130;24.746;2023-04-20T09:20:03;99113.25;;;17.14;62.87
8320;BME280;4197;42.130;24.746;2023-04-20T09:22:34;99092.53;;;17.13;61.47
8320;BME280;4197;42.130;24.746;2023-04-20T09:25:12;99100.28;;;17.18;62.49
8320;BME280;4197;42.130;24.746;2023-04-20T09:27:40;99089.22;;;17.29;61.30
8320;BME280;4197;42.130;24.746;2023-04-20T09:30:09;99086.16;;;17.23;62.00
8320;BME280;4197;42.130;24.746;2023-04-20T09:32:37;99082.47;;;17.37;61.90
8320;BME280;4197;42.130;24.746;2023-04-20T09:35:06;99085.22;;;17.37;61.55
8320;BME280;4197;42.130;24.746;2023-04-20T09:37:46;99090.03;;;17.29;60.28
8320;BME280;4197;42.130;24.746;2023-04-20T09:40:15;99094.06;;;17.14;60.55
8320;BME280;4197;42.130;24.746;2023-04-20T09:42:46;99087.88;;;17.06;59.90
8320;BME280;4197;42.130;24.746;2023-04-20T09:45:16;99075.59;;;17.22;59.35
8320;BME280;4197;42.130;24.746;2023-04-20T09:47:46;99073.47;;;17.36;60.02
8320;BME280;4197;42.130;24.746;2023-04-20T09:50:16;99082.69;;;17.53;57.86
8320;BME280;4197;42.130;24.746;2023-04-20T09:52:59;99086.72;;;17.76;59.61
8320;BME280;4197;42.130;24.746;2023-04-20T09:55:29;99072.06;;;17.90;59.54
8320;BME280;4197;42.130;24.746;2023-04-20T09:58:01;99072.22;;;17.79;56.31
8320;BME280;4197;42.130;24.746;2023-04-20T10:00:29;99079.88;;;17.60;57.70
8320;BME280;4197;42.130;24.746;2023-04-20T10:02:58;99066.69;;;17.48;58.79
8320;BME280;4197;42.130;24.746;2023-04-20T10:05:33;99065.63;;;17.38;58.33
8320;BME280;4197;42.130;24.746;2023-04-20T10:08:04;99059.66;;;17.47;58.21
8320;BME280;4197;42.130;24.746;2023-04-20T10:10:42;99058.19;;;17.39;57.13
8320;BME280;4197;42.130;24.746;2023-04-20T10:13:12;99051.56;;;17.36;56.19
8320;BME280;4197;42.130;24.746;2023-04-20T10:15:41;99051.16;;;17.38;57.62
8320;BME280;4197;42.130;24.746;2023-04-20T10:18:17;99053.78;;;17.49;57.27
8320;BME280;4197;42.130;24.746;2023-04-20T10:20:46;99044.22;;;17.60;57.58
8320;BME280;4197;42.130;24.746;2023-04-20T10:23:15;99049.13;;;17.76;58.76
8320;BME280;4197;42.130;24.746;2023-04-20T10:25:55;99046.94;;;17.95;58.58
8320;BME280;4197;42.130;24.746;2023-04-20T10:28:24;99037.84;;;18.01;55.98
8320;BME280;4197;42.130;24.746;2023-04-20T10:30:52;99041.28;;;18.05;59.33
8320;BME280;4197;42.130;24.746;2023-04-20T10:33:20;99046.50;;;18.23;56.80
8320;BME280;4197;42.130;24.746;2023-04-20T10:35:50;99042.22;;;18.22;54.31
8320;BME280;4197;42.130;24.746;2023-04-20T10:38:33;99044.13;;;18.25;54.69
8320;BME280;4197;42.130;24.746;2023-04-20T10:41:05;99039.97;;;18.41;54.45
8320;BME280;4197;42.130;24.746;2023-04-20T10:43:34;99036.28;;;18.51;55.43
8320;BME280;4197;42.130;24.746;2023-04-20T10:46:12;99036.81;;;18.66;55.16
8320;BME280;4197;42.130;24.746;2023-04-20T10:48:52;99038.28;;;18.70;52.66
8320;BME280;4197;42.130;24.746;2023-04-20T10:51:21;99035.16;;;18.72;53.78
8320;BME280;4197;42.130;24.746;2023-04-20T10:54:02;99038.41;;;19.10;51.54
8320;BME280;4197;42.130;24.746;2023-04-20T10:56:38;99043.75;;;19.17;48.93
8320;BME280;4197;42.130;24.746;2023-04-20T10:59:07;99033.69;;;19.11;49.27
8320;BME280;4197;42.130;24.746;2023-04-20T11:01:36;99029.97;;;19.21;48.55
8320;BME280;4197;42.130;24.746;2023-04-20T11:04:04;99030.03;;;19.37;48.72
8320;BME280;4197;42.130;24.746;2023-04-20T11:06:33;99035.47;;;19.41;48.64
8320;BME280;4197;42.130;24.746;2023-04-20T11:09:03;99033.78;;;19.27;50.20
8320;BME280;4197;42.130;24.746;2023-04-20T11:11:31;99038.78;;;19.12;49.75
8320;BME280;4197;42.130;24.746;2023-04-20T11:14:05;99055.06;;;18.80;52.73
8320;BME280;4197;42.130;24.746;2023-04-20T11:16:34;99076.06;;;17.51;66.65
8320;BME280;4197;42.130;24.746;2023-04-20T11:19:22;99067.94;;;15.98;78.56
8320;BME280;4197;42.130;24.746;2023-04-20T11:21:50;99069.09;;;14.62;89.47
8320;BME280;4197;42.130;24.746;2023-04-20T11:24:22;99070.09;;;13.75;91.39
8320;BME280;4197;42.130;24.746;2023-04-20T11:26:53;99055.88;;;13.30;100.00
8320;BME280;4197;42.130;24.746;2023-04-20T11:29:29;99037.81;;;13.08;100.00
8320;BME280;4197;42.130;24.746;2023-04-20T11:32:01;99030.94;;;13.25;100.00
8320;BME280;4197;42.130;24.746;2023-04-20T11:34:31;99020.41;;;13.23;100.00
8320;BME280;4197;42.130;24.746;2023-04-20T11:37:02;99017.28;;;13.21;100.00
8320;BME280;4197;42.130;24.746;2023-04-20T11:39:33;99016.19;;;13.26;100.00
8320;BME280;4197;42.130;24.746;2023-04-20T11:42:01;99008.44;;;13.31;100.00
8320;BME280;4197;42.130;24.746;2023-04-20T11:44:30;99001.47;;;13.48;100.00
8320;BME280;4197;42.130;24.746;2023-04-20T11:46:58;98997.25;;;13.61;100.00
8320;BME280;4197;42.130;24.746;2023-04-20T11:49:28;98992.97;;;13.71;100.00
8320;BME280;4197;42.130;24.746;2023-04-20T11:51:56;98993.03;;;13.86;100.00
8320;BME280;4197;42.130;24.746;2023-04-20T11:54:24;98987.22;;;14.19;100.00
8320;BME280;4197;42.130;24.746;2023-04-20T11:56:55;98987.19;;;14.41;100.00
8320;BME280;4197;42.130;24.746;2023-04-20T11:59:23;98986.84;;;14.53;100.00
8320;BME280;4197;42.130;24.746;2023-04-20T12:01:51;98980.59;;;14.63;100.00
8320;BME280;4197;42.130;24.746;2023-04-20T12:04:19;98975.47;;;14.80;100.00
8320;BME280;4197;42.130;24.746;2023-04-20T12:06:49;98975.84;;;14.92;98.45
8320;BME280;4197;42.130;24.746;2023-04-20T12:09:17;98977.00;;;15.02;93.90
8320;BME280;4197;42.130;24.746;2023-04-20T12:11:46;98970.72;;;15.12;91.41
8320;BME280;4197;42.130;24.746;2023-04-20T12:14:16;98976.13;;;15.27;87.10
8320;BME280;4197;42.130;24.746;2023-04-20T12:16:44;98968.97;;;15.51;83.51
8320;BME280;4197;42.130;24.746;2023-04-20T12:19:13;98968.28;;;15.32;88.40
8320;BME280;4197;42.130;24.746;2023-04-20T12:21:43;98965.91;;;15.42;80.49
8320;BME280;4197;42.130;24.746;2023-04-20T12:24:13;98963.91;;;15.53;86.13
8320;BME280;4197;42.130;24.746;2023-04-20T12:26:41;98960.28;;;15.77;75.93
8320;BME280;4197;42.130;24.746;2023-04-20T12:29:09;98956.25;;;15.93;74.61
8320;BME280;4197;42.130;24.746;2023-04-20T12:31:39;98953.22;;;16.32;67.51
8320;BME280;4197;42.130;24.746;2023-04-20T12:34:08;98957.56;;;16.26;71.51
8320;BME280;4197;42.130;24.746;2023-04-20T12:36:36;98947.53;;;16.54;70.37
8320;BME280;4197;42.130;24.746;2023-04-20T12:39:04;98941.00;;;16.85;70.02
8320;BME280;4197;42.130;24.746;2023-04-20T12:41:33;98944.13;;;17.18;65.87
8320;BME280;4197;42.130;24.746;2023-04-20T12:44:01;98941.47;;;17.42;63.97
8320;BME280;4197;42.130;24.746;2023-04-20T12:46:33;98937.44;;;17.50;63.82
8320;BME280;4197;42.130;24.746;2023-04-20T12:49:03;98935.59;;;17.70;61.84
8320;BME280;4197;42.130;24.746;2023-04-20T12:51:32;98936.34;;;17.71;60.76
8320;BME280;4197;42.130;24.746;2023-04-20T12:54:00;98929.75;;;17.41;63.41
8320;BME280;4197;42.130;24.746;2023-04-20T12:56:28;98932.38;;;17.17;66.16
8320;BME280;4197;42.130;24.746;2023-04-20T12:58:57;98931.63;;;17.17;64.29
8320;BME280;4197;42.130;24.746;2023-04-20T13:01:25;98929.56;;;17.25;64.32
8320;BME280;4197;42.130;24.746;2023-04-20T13:03:54;98929.94;;;17.27;66.49
8320;BME280;4197;42.130;24.746;2023-04-20T13:06:24;98934.47;;;17.37;62.54
8320;BME280;4197;42.130;24.746;2023-04-20T13:08:53;98929.88;;;17.30;63.12
8320;BME280;4197;42.130;24.746;2023-04-20T13:11:21;98923.78;;;17.19;63.97
8320;BME280;4197;42.130;24.746;2023-04-20T13:13:53;98928.59;;;17.08;60.68
8320;BME280;4197;42.130;24.746;2023-04-20T13:16:22;98919.13;;;17.12;65.36